createdAt,value
2023-03-06T00:01:19.848Z,13.73
2023-03-06T00:03:48.744Z,12.75
2023-03-06T00:06:17.462Z,13.05
2023-03-06T00:08:46.142Z,12.95
2023-03-06T00:11:15.517Z,13.45
2023-03-06T00:13:44.190Z,13.05
2023-03-06T00:16:14.318Z,13.00
2023-03-06T00:18:44.120Z,13.43
2023-03-06T00:21:12.665Z,12.98
2023-03-06T00:23:41.364Z,12.68
2023-03-06T00:26:11.031Z,13.18
2023-03-06T00:28:41.831Z,12.15
2023-03-06T00:31:11.327Z,13.32
2023-03-06T00:33:43.274Z,13.50
2023-03-06T00:36:12.473Z,12.85
2023-03-06T00:38:42.902Z,13.20
2023-03-06T00:41:12.437Z,12.85
2023-03-06T00:43:41.319Z,13.90
2023-03-06T00:46:10.045Z,13.30
2023-03-06T00:48:40.290Z,13.48
2023-03-06T00:51:08.877Z,13.25
2023-03-06T00:53:37.513Z,12.98
2023-03-06T00:56:08.992Z,13.55
2023-03-06T00:58:38.219Z,13.70
2023-03-06T01:01:07.105Z,12.40
2023-03-06T01:03:35.774Z,13.20
2023-03-06T01:06:06.020Z,12.98
2023-03-06T01:08:37.263Z,13.48
2023-03-06T01:11:06.102Z,12.88
2023-03-06T01:13:34.848Z,12.75
2023-03-06T01:16:11.456Z,12.45
2023-03-06T01:18:40.309Z,12.80
2023-03-06T01:21:10.384Z,13.05
2023-03-06T01:23:39.057Z,12.95
2023-03-06T01:26:08.228Z,12.35
2023-03-06T01:28:39.081Z,13.20
2023-03-06T01:31:08.785Z,12.38
2023-03-06T01:33:38.102Z,11.02
2023-03-06T01:36:09.828Z,12.18
2023-03-06T01:38:38.957Z,12.80
2023-03-06T01:41:07.836Z,12.00
2023-03-06T01:43:37.894Z,12.43
2023-03-06T01:46:34.738Z,12.10
2023-03-06T01:49:07.579Z,11.95
2023-03-06T01:51:40.348Z,12.18
2023-03-06T01:54:12.643Z,12.93
2023-03-06T01:56:42.300Z,11.70
2023-03-06T01:59:11.193Z,12.48
2023-03-06T02:01:41.727Z,11.82
2023-03-06T02:04:10.999Z,10.75
2023-03-06T02:06:44.043Z,11.20
2023-03-06T02:09:14.066Z,11.13
2023-03-06T02:11:44.119Z,11.77
2023-03-06T02:14:14.042Z,11.70
2023-03-06T02:16:43.051Z,12.52
2023-03-06T02:19:30.446Z,11.88
2023-03-06T02:22:00.636Z,12.00
2023-03-06T02:24:36.566Z,10.43
2023-03-06T02:27:07.432Z,11.38
2023-03-06T02:29:36.783Z,11.68
2023-03-06T02:32:06.456Z,10.20
2023-03-06T02:34:55.983Z,10.65
2023-03-06T02:37:25.928Z,9.65
2023-03-06T02:40:00.740Z,9.98
2023-03-06T02:42:31.949Z,11.00
2023-03-06T02:45:02.895Z,9.25
2023-03-06T02:47:32.475Z,9.98
2023-03-06T02:50:01.039Z,10.27
2023-03-06T02:52:29.840Z,10.45
2023-03-06T02:54:58.441Z,10.23
2023-03-06T02:57:27.093Z,10.13
2023-03-06T02:59:57.452Z,10.45
2023-03-06T03:02:26.258Z,9.48
2023-03-06T03:04:55.095Z,9.68
2023-03-06T03:07:25.111Z,9.13
2023-03-06T03:09:56.182Z,8.90
2023-03-06T03:12:25.091Z,9.10
2023-03-06T03:14:53.833Z,9.63
2023-03-06T03:17:23.768Z,9.48
2023-03-06T03:19:52.529Z,8.85
2023-03-06T03:22:21.440Z,8.75
2023-03-06T03:24:50.092Z,9.07
2023-03-06T03:27:18.890Z,10.13
2023-03-06T03:29:47.591Z,9.48
2023-03-06T03:32:16.345Z,8.68
2023-03-06T03:34:46.394Z,8.77
2023-03-06T03:37:15.261Z,8.63
2023-03-06T03:39:44.743Z,8.80
2023-03-06T03:42:13.812Z,8.93
2023-03-06T03:44:42.387Z,9.27
2023-03-06T03:47:11.079Z,8.68
2023-03-06T03:49:40.693Z,8.75
2023-03-06T03:52:10.787Z,9.25
2023-03-06T03:54:41.591Z,8.77
2023-03-06T03:57:10.231Z,8.48
2023-03-06T03:59:42.963Z,9.52
2023-03-06T04:02:28.073Z,8.93
2023-03-06T04:05:09.487Z,8.63
2023-03-06T04:07:39.835Z,8.75
2023-03-06T04:10:09.990Z,9.57
2023-03-06T04:12:39.162Z,9.20
2023-03-06T04:15:09.510Z,9.45
2023-03-06T04:17:38.911Z,9.60
2023-03-06T04:20:12.922Z,9.65
2023-03-06T04:22:44.015Z,9.30
2023-03-06T04:25:13.891Z,10.35
2023-03-06T04:27:42.756Z,9.57
2023-03-06T04:30:13.716Z,9.07
2023-03-06T04:32:42.959Z,9.73
2023-03-06T04:35:12.035Z,9.15
2023-03-06T04:37:51.657Z,9.00
2023-03-06T04:40:27.224Z,8.90
2023-03-06T04:42:56.654Z,9.10
2023-03-06T04:45:26.045Z,9.68
2023-03-06T04:47:55.050Z,9.38
2023-03-06T04:50:24.889Z,18.05
2023-03-06T04:52:57.998Z,11.82
2023-03-06T04:55:27.084Z,8.70
2023-03-06T04:57:55.789Z,10.05
2023-03-06T05:00:30.204Z,9.02
2023-03-06T05:02:59.823Z,8.48
2023-03-06T05:05:29.149Z,8.68
2023-03-06T05:07:59.237Z,8.80
2023-03-06T05:10:27.782Z,8.70
2023-03-06T05:12:56.520Z,9.23
2023-03-06T05:15:25.325Z,8.50
2023-03-06T05:17:53.976Z,9.00
2023-03-06T05:20:22.591Z,8.57
2023-03-06T05:22:51.264Z,8.73
2023-03-06T05:25:21.463Z,8.43
2023-03-06T05:27:50.127Z,8.55
2023-03-06T05:30:21.097Z,8.80
2023-03-06T05:32:49.985Z,8.13
2023-03-06T05:35:20.474Z,9.02
2023-03-06T05:37:49.602Z,8.57
2023-03-06T05:40:21.153Z,8.50
2023-03-06T05:42:49.791Z,9.20
2023-03-06T05:45:18.528Z,8.52
2023-03-06T05:47:47.294Z,8.50
2023-03-06T05:50:15.954Z,8.60
2023-03-06T05:52:44.584Z,8.40
2023-03-06T05:55:14.094Z,8.43
2023-03-06T05:57:44.266Z,8.38
2023-03-06T06:00:14.766Z,8.80
2023-03-06T06:02:45.584Z,8.07
2023-03-06T06:05:14.637Z,8.82
2023-03-06T06:07:43.646Z,8.77
2023-03-06T06:10:13.705Z,8.90
2023-03-06T06:12:43.952Z,9.18
2023-03-06T06:15:12.733Z,8.98
2023-03-06T06:17:41.351Z,8.68
2023-03-06T06:20:12.035Z,8.75
2023-03-06T06:22:41.223Z,10.00
2023-03-06T06:25:10.417Z,8.82
2023-03-06T06:27:39.078Z,8.93
2023-03-06T06:30:12.516Z,8.07
2023-03-06T06:32:41.590Z,7.97
2023-03-06T06:35:11.107Z,8.32
2023-03-06T06:37:39.774Z,8.38
2023-03-06T06:40:09.677Z,9.13
2023-03-06T06:42:40.150Z,8.10
2023-03-06T06:45:12.003Z,8.50
2023-03-06T06:47:41.443Z,8.57
2023-03-06T06:50:13.459Z,8.60
2023-03-06T06:52:42.401Z,9.57
2023-03-06T06:55:11.927Z,9.63
2023-03-06T06:57:41.918Z,9.52
2023-03-06T07:00:14.569Z,9.90
2023-03-06T07:02:43.320Z,10.57
2023-03-06T07:05:12.306Z,9.50
2023-03-06T07:07:40.974Z,9.13
2023-03-06T07:10:14.593Z,10.07
2023-03-06T07:12:43.619Z,10.13
2023-03-06T07:15:15.978Z,9.80
2023-03-06T07:17:44.779Z,9.57
2023-03-06T07:20:13.984Z,10.77
2023-03-06T07:22:50.797Z,9.82
2023-03-06T07:25:20.725Z,11.60
2023-03-06T07:27:53.904Z,17.40
2023-03-06T07:30:25.277Z,9.45
2023-03-06T07:32:54.920Z,9.30
2023-03-06T07:35:24.012Z,9.55
2023-03-06T07:37:52.852Z,8.85
2023-03-06T07:40:21.883Z,8.68
2023-03-06T07:42:50.842Z,9.68
2023-03-06T07:45:27.765Z,9.70
2023-03-06T07:47:56.467Z,10.93
2023-03-06T07:50:25.096Z,9.30
2023-03-06T07:52:54.125Z,9.80
2023-03-06T07:55:22.771Z,10.18
2023-03-06T07:57:52.190Z,9.32
2023-03-06T08:00:21.797Z,8.07
2023-03-06T08:02:51.732Z,8.05
2023-03-06T08:05:20.567Z,8.63
2023-03-06T08:07:49.128Z,7.88
2023-03-06T08:10:18.384Z,8.32
2023-03-06T08:12:47.045Z,8.15
2023-03-06T08:15:15.988Z,8.32
2023-03-06T08:17:44.685Z,8.00
2023-03-06T08:20:15.652Z,8.10
2023-03-06T08:22:44.332Z,8.45
2023-03-06T08:25:13.535Z,7.88
2023-03-06T08:27:42.289Z,7.68
2023-03-06T08:30:12.059Z,7.22
2023-03-06T08:32:41.029Z,6.88
2023-03-06T08:35:10.197Z,7.22
2023-03-06T08:37:40.255Z,7.85
2023-03-06T08:40:10.429Z,7.47
2023-03-06T08:42:39.292Z,7.90
2023-03-06T08:45:09.303Z,7.75
2023-03-06T08:47:38.061Z,7.47
2023-03-06T08:50:07.395Z,7.80
2023-03-06T08:52:36.171Z,7.38
2023-03-06T08:55:06.948Z,7.15
2023-03-06T08:57:35.622Z,7.85
2023-03-06T09:00:06.828Z,7.05
2023-03-06T09:02:35.799Z,7.70
2023-03-06T09:05:07.456Z,7.30
2023-03-06T09:07:36.580Z,7.70
2023-03-06T09:10:07.484Z,7.15
2023-03-06T09:12:49.444Z,6.97
2023-03-06T09:15:20.348Z,7.63
2023-03-06T09:17:49.210Z,7.95
2023-03-06T09:20:18.352Z,7.40
2023-03-06T09:22:47.114Z,6.95
2023-03-06T09:25:20.464Z,7.18
2023-03-06T09:27:58.246Z,7.00
2023-03-06T09:30:30.720Z,6.75
2023-03-06T09:32:59.437Z,7.90
2023-03-06T09:35:28.089Z,6.88
2023-03-06T09:37:56.689Z,7.25
2023-03-06T09:40:35.234Z,7.40
2023-03-06T09:43:03.821Z,6.85
2023-03-06T09:45:35.347Z,7.28
2023-03-06T09:48:05.762Z,7.03
2023-03-06T09:50:38.907Z,6.82
2023-03-06T09:53:30.560Z,6.53
2023-03-06T09:56:03.410Z,6.45
2023-03-06T09:58:33.543Z,6.78
2023-03-06T10:01:05.134Z,7.80
2023-03-06T10:03:37.347Z,6.15
2023-03-06T10:06:10.505Z,6.88
2023-03-06T10:08:46.598Z,6.90
2023-03-06T10:11:21.184Z,7.43
2023-03-06T10:13:52.834Z,7.10
2023-03-06T10:16:26.964Z,8.50
2023-03-06T10:18:56.189Z,6.63
2023-03-06T10:21:43.676Z,7.50
2023-03-06T10:24:21.567Z,7.47
2023-03-06T10:26:56.383Z,7.57
2023-03-06T10:29:43.687Z,7.38
2023-03-06T10:32:34.251Z,6.85
2023-03-06T10:35:15.976Z,7.00
2023-03-06T10:37:44.697Z,6.95
2023-03-06T10:40:17.987Z,7.22
2023-03-06T10:42:49.512Z,7.70
2023-03-06T10:45:20.875Z,7.77
2023-03-06T10:47:50.099Z,7.80
2023-03-06T10:50:27.727Z,7.00
2023-03-06T10:53:05.675Z,7.55
2023-03-06T10:55:35.690Z,7.43
2023-03-06T10:58:24.893Z,6.72
2023-03-06T11:01:03.805Z,7.25
2023-03-06T11:03:32.518Z,7.32
2023-03-06T11:06:12.930Z,7.32
2023-03-06T11:08:43.993Z,7.55
2023-03-06T11:11:16.926Z,7.25
2023-03-06T11:13:58.526Z,7.75
2023-03-06T11:16:30.394Z,6.88
2023-03-06T11:19:01.312Z,6.85
2023-03-06T11:21:31.840Z,7.60
2023-03-06T11:24:05.652Z,7.13
2023-03-06T11:26:38.618Z,5.80
2023-03-06T11:29:38.417Z,9.88
2023-03-06T11:32:12.960Z,8.43
2023-03-06T11:34:46.543Z,6.63
2023-03-06T11:37:22.022Z,6.70
2023-03-06T11:39:58.069Z,7.32
2023-03-06T11:42:29.306Z,6.72
2023-03-06T11:45:17.886Z,7.22
2023-03-06T11:47:49.368Z,6.72
2023-03-06T11:50:22.655Z,6.85
2023-03-06T11:52:55.543Z,6.35
2023-03-06T11:55:33.065Z,7.20
2023-03-06T11:58:23.105Z,6.88
2023-03-06T12:00:55.510Z,6.20
2023-03-06T12:03:43.013Z,7.00
2023-03-06T12:06:19.276Z,6.63
2023-03-06T12:08:58.451Z,7.43
2023-03-06T12:11:33.151Z,7.05
2023-03-06T12:14:13.031Z,6.43
2023-03-06T12:16:51.228Z,7.05
2023-03-06T12:19:31.178Z,6.88
2023-03-06T12:22:16.809Z,6.72
2023-03-06T12:25:12.659Z,7.13
2023-03-06T12:27:47.618Z,7.28
2023-03-06T12:30:26.361Z,6.22
2023-03-06T12:33:01.557Z,6.97
2023-03-06T12:35:54.492Z,6.15
2023-03-06T12:38:57.029Z,6.85
2023-03-06T12:41:34.942Z,6.60
2023-03-06T12:44:28.424Z,6.93
2023-03-06T12:46:59.672Z,6.80
2023-03-06T12:49:33.321Z,6.53
2023-03-06T12:52:02.831Z,6.60
2023-03-06T12:54:34.404Z,6.85
2023-03-06T12:57:03.055Z,7.10
2023-03-06T12:59:44.326Z,6.18
2023-03-06T13:02:42.719Z,6.70
2023-03-06T13:05:30.821Z,6.65
2023-03-06T13:08:13.717Z,6.45
2023-03-06T13:10:43.777Z,6.03
2023-03-06T13:13:32.128Z,6.05
2023-03-06T13:16:13.375Z,6.00
2023-03-06T13:18:54.257Z,6.85
2023-03-06T13:22:08.848Z,6.05
2023-03-06T13:24:39.203Z,6.60
2023-03-06T13:27:10.379Z,6.15
2023-03-06T13:30:21.520Z,6.97
2023-03-06T13:32:52.690Z,6.40
2023-03-06T13:35:48.609Z,5.80
2023-03-06T13:38:38.382Z,6.00
2023-03-06T13:41:47.431Z,6.32
2023-03-06T13:44:46.118Z,5.43
2023-03-06T13:47:31.019Z,6.03
2023-03-06T13:50:00.280Z,6.00
2023-03-06T13:52:37.027Z,5.43
2023-03-06T13:55:14.485Z,5.28
2023-03-06T13:57:53.698Z,4.75
2023-03-06T14:00:38.780Z,5.80
2023-03-06T14:03:47.575Z,5.55
2023-03-06T14:06:42.428Z,6.63
2023-03-06T14:09:17.064Z,5.43
2023-03-06T14:11:52.960Z,6.18
2023-03-06T14:14:33.279Z,5.30
2023-03-06T14:17:05.086Z,6.10
2023-03-06T14:19:39.887Z,5.63
2023-03-06T14:22:12.984Z,5.75
2023-03-06T14:24:45.900Z,5.47
2023-03-06T14:27:19.548Z,6.03
2023-03-06T14:29:49.794Z,5.75
2023-03-06T14:32:21.275Z,5.60
2023-03-06T14:34:50.162Z,5.40
2023-03-06T14:37:22.240Z,5.88
2023-03-06T14:39:50.988Z,5.45
2023-03-06T14:42:20.994Z,5.70
2023-03-06T14:45:02.306Z,5.70
2023-03-06T14:47:33.228Z,5.53
2023-03-06T14:50:24.139Z,6.10
2023-03-06T14:52:55.497Z,6.15
2023-03-06T14:55:26.977Z,5.63
2023-03-06T14:57:59.510Z,6.60
2023-03-06T15:00:35.580Z,6.40
2023-03-06T15:03:08.560Z,6.43
2023-03-06T15:05:37.324Z,5.43
2023-03-06T15:08:08.704Z,5.38
2023-03-06T15:10:38.786Z,6.15
2023-03-06T15:13:11.897Z,6.43
2023-03-06T15:15:41.948Z,5.57
2023-03-06T15:18:30.861Z,5.85
2023-03-06T15:21:09.886Z,6.97
2023-03-06T15:23:40.339Z,6.43
2023-03-06T15:26:27.506Z,5.70
2023-03-06T15:29:07.005Z,6.00
2023-03-06T15:31:40.066Z,5.43
2023-03-06T15:34:27.525Z,6.45
2023-03-06T15:36:58.069Z,5.65
2023-03-06T15:39:38.215Z,5.55
2023-03-06T15:42:21.096Z,6.05
2023-03-06T15:44:51.120Z,6.30
2023-03-06T15:47:21.460Z,6.07
2023-03-06T15:49:52.609Z,6.10
2023-03-06T15:52:21.741Z,6.22
2023-03-06T15:54:50.679Z,6.13
2023-03-06T15:57:23.435Z,6.25
2023-03-06T15:59:52.410Z,5.85
2023-03-06T16:02:24.198Z,6.22
2023-03-06T16:04:53.069Z,5.97
2023-03-06T16:07:21.761Z,6.53
2023-03-06T16:09:50.523Z,6.22
2023-03-06T16:12:20.581Z,6.78
2023-03-06T16:14:52.504Z,6.45
2023-03-06T16:17:22.525Z,7.28
2023-03-06T16:19:51.341Z,7.13
2023-03-06T16:22:20.154Z,7.30
2023-03-06T16:24:49.645Z,6.70
2023-03-06T16:27:23.443Z,7.60
2023-03-06T16:29:52.311Z,7.72
2023-03-06T16:32:22.415Z,7.30
2023-03-06T16:34:51.403Z,7.20
2023-03-06T16:37:20.106Z,6.72
2023-03-06T16:39:48.818Z,7.28
2023-03-06T16:42:17.668Z,7.13
2023-03-06T16:44:46.386Z,7.55
2023-03-06T16:47:15.060Z,9.50
2023-03-06T16:49:45.129Z,7.40
2023-03-06T16:52:14.525Z,7.15
2023-03-06T16:54:44.753Z,7.47
2023-03-06T16:57:15.846Z,6.95
2023-03-06T16:59:45.081Z,7.03
2023-03-06T17:02:14.207Z,7.07
2023-03-06T17:04:44.172Z,7.32
2023-03-06T17:07:12.963Z,8.10
2023-03-06T17:09:41.614Z,7.07
2023-03-06T17:12:10.823Z,8.60
2023-03-06T17:14:39.597Z,8.18
2023-03-06T17:17:08.325Z,7.70
2023-03-06T17:19:37.118Z,9.13
2023-03-06T17:22:07.260Z,8.13
2023-03-06T17:24:37.412Z,7.75
2023-03-06T17:27:06.333Z,8.27
2023-03-06T17:29:34.991Z,8.27
2023-03-06T17:32:03.777Z,8.43
2023-03-06T17:34:32.554Z,7.88
2023-03-06T17:37:01.481Z,8.65
2023-03-06T17:39:35.298Z,9.57
2023-03-06T17:42:04.497Z,9.05
2023-03-06T17:44:33.488Z,9.30
2023-03-06T17:47:02.277Z,28.88
2023-03-06T17:49:30.842Z,10.23
2023-03-06T17:52:02.739Z,9.10
2023-03-06T17:54:33.171Z,9.27
2023-03-06T17:57:03.632Z,9.23
2023-03-06T17:59:35.160Z,8.43
2023-03-06T18:02:06.106Z,9.35
2023-03-06T18:04:34.905Z,8.95
2023-03-06T18:07:03.603Z,9.07
2023-03-06T18:09:34.892Z,9.10
2023-03-06T18:12:03.593Z,9.02
2023-03-06T18:14:32.236Z,9.48
2023-03-06T18:17:00.828Z,9.00
2023-03-06T18:19:31.988Z,9.15
2023-03-06T18:22:00.619Z,8.88
2023-03-06T18:24:29.332Z,9.02
2023-03-06T18:26:59.385Z,8.93
2023-03-06T18:29:28.025Z,9.35
2023-03-06T18:31:58.744Z,9.00
2023-03-06T18:34:27.518Z,9.13
2023-03-06T18:36:56.210Z,8.50
2023-03-06T18:39:24.996Z,9.60
2023-03-06T18:41:53.970Z,13.93
2023-03-06T18:44:23.993Z,25.98
2023-03-06T18:46:52.778Z,9.68
2023-03-06T18:49:22.063Z,8.88
2023-03-06T18:51:51.452Z,9.00
2023-03-06T18:54:20.203Z,9.07
2023-03-06T18:56:48.857Z,9.48
2023-03-06T18:59:20.198Z,8.82
2023-03-06T19:01:51.838Z,9.18
2023-03-06T19:04:20.587Z,9.98
2023-03-06T19:06:49.375Z,9.57
2023-03-06T19:09:18.070Z,9.20
2023-03-06T19:11:47.488Z,8.25
2023-03-06T19:14:16.340Z,8.75
2023-03-06T19:16:45.153Z,8.43
2023-03-06T19:19:15.200Z,8.32
2023-03-06T19:21:43.903Z,8.38
2023-03-06T19:24:13.919Z,8.85
2023-03-06T19:26:43.758Z,12.13
2023-03-06T19:29:12.424Z,8.15
2023-03-06T19:31:41.356Z,9.02
2023-03-06T19:34:10.054Z,9.05
2023-03-06T19:36:40.912Z,8.50
2023-03-06T19:39:10.292Z,8.77
2023-03-06T19:41:39.021Z,8.80
2023-03-06T19:44:07.683Z,8.73
2023-03-06T19:46:36.316Z,8.05
2023-03-06T19:49:11.699Z,8.68
2023-03-06T19:51:41.796Z,8.10
2023-03-06T19:54:12.139Z,8.05
2023-03-06T19:56:41.128Z,9.15
2023-03-06T19:59:10.146Z,8.85
2023-03-06T20:01:39.620Z,9.15
2023-03-06T20:04:08.344Z,8.15
2023-03-06T20:06:38.690Z,8.65
2023-03-06T20:09:09.920Z,8.85
2023-03-06T20:11:39.173Z,8.25
2023-03-06T20:14:08.885Z,8.55
2023-03-06T20:16:37.878Z,9.07
2023-03-06T20:19:06.925Z,8.95
2023-03-06T20:21:37.509Z,8.55
2023-03-06T20:24:08.438Z,7.97
2023-03-06T20:26:38.470Z,9.25
2023-03-06T20:29:07.360Z,7.78
2023-03-06T20:31:36.135Z,9.30
2023-03-06T20:34:05.466Z,8.45
2023-03-06T20:36:36.345Z,9.57
2023-03-06T20:39:07.753Z,8.48
2023-03-06T20:41:37.761Z,9.18
2023-03-06T20:44:08.324Z,9.15
2023-03-06T20:46:37.356Z,8.52
2023-03-06T20:49:06.119Z,8.75
2023-03-06T20:51:37.560Z,9.15
2023-03-06T20:54:07.308Z,9.70
2023-03-06T20:56:39.403Z,8.40
2023-03-06T20:59:08.314Z,9.00
2023-03-06T21:01:39.011Z,8.50
2023-03-06T21:04:08.600Z,8.45
2023-03-06T21:06:37.864Z,8.35
2023-03-06T21:09:07.440Z,15.30
2023-03-06T21:11:37.907Z,9.15
2023-03-06T21:14:07.032Z,11.30
2023-03-06T21:16:36.145Z,10.60
2023-03-06T21:19:05.167Z,8.40
2023-03-06T21:21:35.792Z,8.68
2023-03-06T21:24:04.701Z,8.30
2023-03-06T21:26:34.754Z,8.43
2023-03-06T21:29:05.256Z,8.48
2023-03-06T21:31:34.515Z,8.52
2023-03-06T21:34:05.187Z,8.13
2023-03-06T21:36:34.405Z,8.43
2023-03-06T21:39:06.025Z,8.77
2023-03-06T21:41:35.008Z,7.88
2023-03-06T21:44:06.570Z,7.93
2023-03-06T21:46:35.637Z,8.00
2023-03-06T21:49:05.133Z,8.10
2023-03-06T21:51:33.998Z,7.88
2023-03-06T21:54:03.112Z,8.93
2023-03-06T21:56:33.363Z,8.40
2023-03-06T21:59:02.236Z,8.20
2023-03-06T22:01:32.316Z,9.02
2023-03-06T22:04:01.228Z,8.82
2023-03-06T22:06:31.282Z,8.23
2023-03-06T22:09:00.873Z,9.32
2023-03-06T22:11:31.227Z,9.60
2023-03-06T22:14:00.071Z,9.10
2023-03-06T22:16:28.826Z,10.27
2023-03-06T22:18:59.164Z,9.93
2023-03-06T22:21:27.918Z,9.02
2023-03-06T22:23:58.634Z,9.25
2023-03-06T22:26:27.960Z,9.85
2023-03-06T22:28:56.855Z,9.35
2023-03-06T22:31:28.277Z,8.57
2023-03-06T22:33:59.490Z,9.68
2023-03-06T22:36:30.300Z,9.68
2023-03-06T22:39:00.602Z,9.85
2023-03-06T22:41:29.733Z,9.65
2023-03-06T22:43:58.495Z,10.02
2023-03-06T22:46:27.669Z,9.48
2023-03-06T22:48:59.221Z,9.93
2023-03-06T22:51:29.607Z,9.75
2023-03-06T22:53:58.584Z,10.00
2023-03-06T22:56:27.155Z,9.57
2023-03-06T22:58:57.736Z,9.20
2023-03-06T23:01:28.739Z,9.95
2023-03-06T23:04:00.437Z,8.98
2023-03-06T23:06:30.833Z,9.98
2023-03-06T23:09:01.257Z,9.88
2023-03-06T23:11:30.889Z,9.38
2023-03-06T23:14:19.217Z,10.07
2023-03-06T23:17:06.587Z,9.85
2023-03-06T23:19:55.269Z,8.95
2023-03-06T23:22:42.738Z,9.30
2023-03-06T23:25:29.684Z,9.65
2023-03-06T23:27:58.385Z,9.75
2023-03-06T23:30:27.027Z,8.98
2023-03-06T23:32:55.761Z,9.20
2023-03-06T23:35:25.943Z,9.55
2023-03-06T23:37:54.655Z,11.00
2023-03-06T23:40:23.576Z,10.13
2023-03-06T23:42:52.227Z,10.43
2023-03-06T23:45:20.868Z,9.15
2023-03-06T23:47:49.749Z,9.70
2023-03-06T23:50:18.848Z,9.70
2023-03-06T23:52:48.795Z,10.25
2023-03-06T23:55:17.582Z,10.10
2023-03-06T23:57:46.222Z,9.73
